createdAt,value
2018-01-22T00:01:02.253Z,98500.58
2018-01-22T00:03:30.507Z,98493.59
2018-01-22T00:05:58.812Z,98479.52
2018-01-22T00:08:27.054Z,98469.53
2018-01-22T00:10:55.362Z,98479.06
2018-01-22T00:13:23.611Z,98466.67
2018-01-22T00:15:51.914Z,98462.98
2018-01-22T00:18:20.212Z,98448.03
2018-01-22T00:20:48.499Z,98444.14
2018-01-22T00:23:17.535Z,98437.88
2018-01-22T00:25:45.802Z,98432.34
2018-01-22T00:28:14.070Z,98425.58
2018-01-22T00:30:42.367Z,98419.31
2018-01-22T00:33:10.642Z,98415.80
2018-01-22T00:35:38.891Z,98399.23
2018-01-22T00:38:07.195Z,98387.08
2018-01-22T00:40:35.442Z,98393.48
2018-01-22T00:43:04.323Z,98388.94
2018-01-22T00:45:32.609Z,98385.82
2018-01-22T00:48:00.887Z,98383.61
2018-01-22T00:50:29.146Z,98377.64
2018-01-22T00:52:57.429Z,98370.09
2018-01-22T00:55:25.723Z,98376.25
2018-01-22T00:57:53.975Z,98370.36
2018-01-22T01:00:22.802Z,98376.17
2018-01-22T01:02:51.059Z,98373.16
2018-01-22T01:05:19.334Z,98371.34
2018-01-22T01:07:47.579Z,98365.11
2018-01-22T01:10:15.923Z,98348.37
2018-01-22T01:12:44.178Z,98352.19
2018-01-22T01:15:12.490Z,98349.58
2018-01-22T01:17:40.739Z,98346.11
2018-01-22T01:20:09.018Z,98352.54
2018-01-22T01:22:37.278Z,98349.22
2018-01-22T01:25:05.572Z,98344.05
2018-01-22T01:27:33.822Z,98340.73
2018-01-22T01:30:02.109Z,98322.94
2018-01-22T01:32:30.363Z,98321.14
2018-01-22T01:34:58.642Z,98322.03
2018-01-22T01:37:26.930Z,98317.02
2018-01-22T01:39:55.178Z,98312.54
2018-01-22T01:42:23.469Z,98311.52
2018-01-22T01:44:51.718Z,98315.16
2018-01-22T01:47:20.015Z,98316.95
2018-01-22T01:49:48.270Z,98301.73
2018-01-22T01:52:16.595Z,98317.91
2018-01-22T01:54:44.824Z,98309.55
2018-01-22T01:57:13.149Z,98313.44
2018-01-22T01:59:41.406Z,98314.63
2018-01-22T02:02:09.747Z,98299.80
2018-01-22T02:04:38.028Z,98301.63
2018-01-22T02:07:06.318Z,98299.46
2018-01-22T02:09:34.578Z,98298.45
2018-01-22T02:12:02.879Z,98293.17
2018-01-22T02:14:31.128Z,98304.59
2018-01-22T02:16:59.376Z,98288.16
2018-01-22T02:19:27.662Z,98298.82
2018-01-22T02:21:55.938Z,98285.20
2018-01-22T02:24:24.252Z,98279.11
2018-01-22T02:26:52.516Z,98275.79
2018-01-22T02:29:20.806Z,98269.89
2018-01-22T02:31:49.064Z,98263.56
2018-01-22T02:34:17.398Z,98262.00
2018-01-22T02:36:45.647Z,98246.12
2018-01-22T02:39:13.966Z,98243.33
2018-01-22T02:41:42.206Z,98258.16
2018-01-22T02:44:10.488Z,98271.98
2018-01-22T02:46:38.731Z,98268.95
2018-01-22T02:49:07.036Z,98271.13
2018-01-22T02:51:35.310Z,98264.72
2018-01-22T02:54:03.551Z,98271.87
2018-01-22T02:56:31.827Z,98275.45
2018-01-22T02:59:00.098Z,98266.16
2018-01-22T03:01:28.374Z,98259.01
2018-01-22T03:03:56.619Z,98259.07
2018-01-22T03:06:24.895Z,98256.40
2018-01-22T03:08:53.142Z,98257.66
2018-01-22T03:11:21.517Z,98259.12
2018-01-22T03:13:49.755Z,98247.31
2018-01-22T03:16:18.025Z,98246.41
2018-01-22T03:18:46.285Z,98245.70
2018-01-22T03:21:14.587Z,98251.94
2018-01-22T03:23:42.853Z,98250.97
2018-01-22T03:26:11.094Z,98261.27
2018-01-22T03:28:39.378Z,98264.03
2018-01-22T03:31:07.640Z,98270.23
2018-01-22T03:33:35.931Z,98261.56
2018-01-22T03:36:04.291Z,98257.88
2018-01-22T03:38:32.587Z,98260.97
2018-01-22T03:41:00.846Z,98263.77
2018-01-22T03:43:29.142Z,98260.66
2018-01-22T03:45:57.416Z,98261.86
2018-01-22T03:48:25.678Z,98256.06
2018-01-22T03:50:53.954Z,98245.67
2018-01-22T03:53:22.203Z,98243.65
2018-01-22T03:55:50.480Z,98243.61
2018-01-22T03:58:18.756Z,98241.58
2018-01-22T04:00:47.037Z,98224.96
2018-01-22T04:03:15.297Z,98238.20
2018-01-22T04:05:43.558Z,98238.61
2018-01-22T04:08:11.830Z,98234.20
2018-01-22T04:10:40.106Z,98230.23
2018-01-22T04:13:08.420Z,98230.34
2018-01-22T04:15:36.709Z,98224.50
2018-01-22T04:18:05.530Z,98228.99
2018-01-22T04:20:33.791Z,98239.73
2018-01-22T04:23:03.128Z,98238.32
2018-01-22T04:25:31.403Z,98235.47
2018-01-22T04:27:59.907Z,98237.43
2018-01-22T04:30:28.149Z,98239.73
2018-01-22T04:32:56.423Z,98233.88
2018-01-22T04:35:24.680Z,98239.41
2018-01-22T04:37:52.994Z,98240.52
2018-01-22T04:40:21.246Z,98248.48
2018-01-22T04:42:49.565Z,98243.54
2018-01-22T04:45:17.811Z,98231.80
2018-01-22T04:47:46.098Z,98244.84
2018-01-22T04:50:14.386Z,98239.37
2018-01-22T04:52:42.646Z,98228.20
2018-01-22T04:55:10.931Z,98242.32
2018-01-22T04:57:39.861Z,98242.70
2018-01-22T05:00:08.165Z,98238.05
2018-01-22T05:02:36.418Z,98253.69
2018-01-22T05:05:05.061Z,98234.73
2018-01-22T05:07:33.360Z,98222.48
2018-01-22T05:10:01.650Z,98230.88
2018-01-22T05:12:30.122Z,98239.12
2018-01-22T05:14:59.238Z,98243.52
2018-01-22T05:17:27.556Z,98242.98
2018-01-22T05:19:55.806Z,98247.67
2018-01-22T05:22:24.091Z,98230.47
2018-01-22T05:24:52.351Z,98234.77
2018-01-22T05:27:20.950Z,98226.46
2018-01-22T05:29:49.204Z,98227.02
2018-01-22T05:32:17.559Z,98219.41
2018-01-22T05:34:45.832Z,98213.72
2018-01-22T05:37:14.138Z,98214.79
2018-01-22T05:39:42.474Z,98211.76
2018-01-22T05:42:10.890Z,98213.70
2018-01-22T05:44:39.161Z,98212.00
2018-01-22T05:47:07.424Z,98218.42
2018-01-22T05:49:35.894Z,98203.41
2018-01-22T05:52:04.227Z,98210.27
2018-01-22T05:54:32.814Z,98200.66
2018-01-22T05:57:01.073Z,98207.31
2018-01-22T05:59:29.363Z,98206.10
2018-01-22T06:01:57.612Z,98216.42
2018-01-22T06:04:25.916Z,98217.55
2018-01-22T06:06:54.187Z,98220.22
2018-01-22T06:09:22.465Z,98217.52
2018-01-22T06:11:50.719Z,98213.23
2018-01-22T06:14:19.065Z,98216.06
2018-01-22T06:16:47.326Z,98206.72
2018-01-22T06:19:15.628Z,98212.76
2018-01-22T06:21:43.899Z,98215.92
2018-01-22T06:24:12.169Z,98199.83
2018-01-22T06:26:40.438Z,98192.99
2018-01-22T06:29:09.325Z,98197.31
2018-01-22T06:31:37.594Z,98194.45
2018-01-22T06:34:05.867Z,98191.21
2018-01-22T06:36:34.171Z,98197.57
2018-01-22T06:39:02.499Z,98188.38
2018-01-22T06:41:30.793Z,98190.23
2018-01-22T06:43:59.080Z,98193.78
2018-01-22T06:46:27.425Z,98189.08
2018-01-22T06:48:55.726Z,98187.33
2018-01-22T06:51:24.181Z,98181.64
2018-01-22T06:53:52.470Z,98188.26
2018-01-22T06:56:20.859Z,98190.66
2018-01-22T06:58:49.170Z,98191.11
2018-01-22T07:01:17.389Z,98200.16
2018-01-22T07:03:45.687Z,98172.28
2018-01-22T07:06:13.975Z,98188.23
2018-01-22T07:08:42.263Z,98210.17
2018-01-22T07:11:10.568Z,98203.03
2018-01-22T07:13:38.876Z,98196.55
2018-01-22T07:16:07.171Z,98208.92
2018-01-22T07:18:35.395Z,98208.77
2018-01-22T07:21:03.678Z,98215.41
2018-01-22T07:23:31.997Z,98212.11
2018-01-22T07:26:00.317Z,98225.45
2018-01-22T07:28:28.531Z,98229.98
2018-01-22T07:30:56.870Z,98235.72
2018-01-22T07:33:25.129Z,98229.38
2018-01-22T07:35:53.843Z,98223.38
2018-01-22T07:38:22.099Z,98215.10
2018-01-22T07:40:50.377Z,98211.30
2018-01-22T07:43:18.656Z,98204.92
2018-01-22T07:45:46.958Z,98203.56
2018-01-22T07:48:15.227Z,98190.86
2018-01-22T07:50:43.536Z,98194.08
2018-01-22T07:53:13.032Z,98197.81
2018-01-22T07:55:41.403Z,98195.70
2018-01-22T07:58:09.673Z,98193.05
2018-01-22T08:00:37.950Z,98200.00
2018-01-22T08:03:06.238Z,98190.87
2018-01-22T08:05:34.773Z,98195.08
2018-01-22T08:08:03.053Z,98187.64
2018-01-22T08:10:31.344Z,98168.91
2018-01-22T08:12:59.648Z,98190.38
2018-01-22T08:15:27.924Z,98192.91
2018-01-22T08:17:56.232Z,98186.50
2018-01-22T08:20:24.660Z,98198.72
2018-01-22T08:22:52.955Z,98186.05
2018-01-22T08:25:21.231Z,98192.63
2018-01-22T08:27:49.529Z,98199.66
2018-01-22T08:30:17.854Z,98203.82
2018-01-22T08:32:46.134Z,98195.25
2018-01-22T08:35:18.748Z,98185.69
2018-01-22T08:37:47.094Z,98188.16
2018-01-22T08:40:15.401Z,98192.13
2018-01-22T08:42:43.870Z,98190.52
2018-01-22T08:45:12.173Z,98199.70
2018-01-22T08:47:40.448Z,98199.59
2018-01-22T08:50:08.775Z,98189.66
2018-01-22T08:52:37.043Z,98182.82
2018-01-22T08:55:05.798Z,98189.20
2018-01-22T08:57:34.051Z,98185.62
2018-01-22T09:00:02.445Z,98181.55
2018-01-22T09:02:31.287Z,98185.77
2018-01-22T09:04:59.754Z,98171.84
2018-01-22T09:07:27.999Z,98183.55
2018-01-22T09:09:56.347Z,98188.48
2018-01-22T09:12:24.628Z,98174.75
2018-01-22T09:14:52.971Z,98178.09
2018-01-22T09:17:21.274Z,98170.50
2018-01-22T09:19:49.555Z,98184.85
2018-01-22T09:22:18.551Z,98186.63
2018-01-22T09:24:46.814Z,98194.64
2018-01-22T09:27:15.806Z,98177.58
2018-01-22T09:29:44.067Z,98174.84
2018-01-22T09:32:12.354Z,98187.99
2018-01-22T09:34:40.796Z,98207.63
2018-01-22T09:37:09.117Z,98208.95
2018-01-22T09:39:37.407Z,98228.20
2018-01-22T09:42:05.730Z,98235.69
2018-01-22T09:44:34.033Z,98235.56
2018-01-22T09:47:02.301Z,98235.05
2018-01-22T09:49:30.797Z,98243.31
2018-01-22T09:51:59.190Z,98247.92
2018-01-22T09:54:27.526Z,98234.75
2018-01-22T09:56:55.779Z,98248.53
2018-01-22T09:59:24.082Z,98252.20
2018-01-22T10:01:52.342Z,98248.42
2018-01-22T10:04:20.686Z,98241.09
2018-01-22T10:06:48.958Z,98236.71
2018-01-22T10:09:17.254Z,98243.41
2018-01-22T10:11:45.528Z,98234.47
2018-01-22T10:14:13.846Z,98239.22
2018-01-22T10:16:42.100Z,98239.22
2018-01-22T10:19:10.411Z,98239.24
2018-01-22T10:21:38.690Z,98228.21
2018-01-22T10:24:07.377Z,98226.30
2018-01-22T10:26:35.644Z,98218.95
2018-01-22T10:29:03.908Z,98237.25
2018-01-22T10:31:32.203Z,98238.03
2018-01-22T10:34:00.508Z,98240.42
2018-01-22T10:36:28.808Z,98240.42
2018-01-22T10:38:57.127Z,98245.44
2018-01-22T10:41:25.465Z,98235.70
2018-01-22T10:43:53.734Z,98235.96
2018-01-22T10:46:22.091Z,98233.60
2018-01-22T10:48:50.352Z,98225.57
2018-01-22T10:51:18.620Z,98231.22
2018-01-22T10:53:46.926Z,98229.79
2018-01-22T10:56:15.252Z,98223.59
2018-01-22T10:58:43.652Z,98226.48
2018-01-22T11:01:11.907Z,98220.95
2018-01-22T11:03:40.200Z,98217.78
2018-01-22T11:06:08.668Z,98200.27
2018-01-22T11:08:36.983Z,98219.34
2018-01-22T11:11:05.236Z,98218.02
2018-01-22T11:13:33.584Z,98192.50
2018-01-22T11:16:07.477Z,98197.88
2018-01-22T11:18:35.775Z,98192.61
2018-01-22T11:21:04.046Z,98181.00
2018-01-22T11:23:32.376Z,98161.43
2018-01-22T11:26:00.781Z,98176.25
2018-01-22T11:28:29.087Z,98172.41
2018-01-22T11:30:57.438Z,98165.54
2018-01-22T11:33:25.833Z,98167.48
2018-01-22T11:35:54.704Z,98151.28
2018-01-22T11:38:24.072Z,98153.58
2018-01-22T11:40:52.374Z,98149.77
2018-01-22T11:43:20.669Z,98149.71
2018-01-22T11:45:48.995Z,98144.45
2018-01-22T11:48:17.887Z,98149.53
2018-01-22T11:50:46.303Z,98151.24
2018-01-22T11:53:14.587Z,98143.75
2018-01-22T11:55:42.940Z,98150.04
2018-01-22T11:58:11.245Z,98153.20
2018-01-22T12:00:39.554Z,98151.93
2018-01-22T12:03:09.845Z,98151.22
2018-01-22T12:05:38.156Z,98161.38
2018-01-22T12:08:06.477Z,98153.42
2018-01-22T12:10:34.773Z,98172.87
2018-01-22T12:13:03.092Z,98168.34
2018-01-22T12:15:31.383Z,98166.02
2018-01-22T12:17:59.683Z,98164.95
2018-01-22T12:20:28.055Z,98167.52
2018-01-22T12:22:56.390Z,98158.25
2018-01-22T12:25:24.679Z,98158.46
2018-01-22T12:27:52.965Z,98150.47
2018-01-22T12:30:21.243Z,98146.31
2018-01-22T12:32:49.659Z,98145.48
2018-01-22T12:35:17.992Z,98123.94
2018-01-22T12:37:46.276Z,98146.34
2018-01-22T12:40:14.623Z,98133.85
2018-01-22T12:42:42.937Z,98126.34
2018-01-22T12:45:11.974Z,98138.84
2018-01-22T12:47:40.353Z,98139.25
2018-01-22T12:50:08.808Z,98140.30
2018-01-22T12:52:37.067Z,98141.11
2018-01-22T12:55:05.337Z,98125.77
2018-01-22T12:57:33.819Z,98125.30
2018-01-22T13:00:02.112Z,98134.99
2018-01-22T13:02:30.716Z,98136.70
2018-01-22T13:04:58.974Z,98139.41
2018-01-22T13:07:27.748Z,98127.16
2018-01-22T13:09:56.033Z,98128.28
2018-01-22T13:12:24.391Z,98130.72
2018-01-22T13:14:52.645Z,98103.77
2018-01-22T13:17:21.052Z,98119.97
2018-01-22T13:19:49.474Z,98127.47
2018-01-22T13:22:17.773Z,98132.58
2018-01-22T13:24:46.046Z,98123.14
2018-01-22T13:27:14.336Z,98129.70
2018-01-22T13:29:42.740Z,98132.05
2018-01-22T13:32:10.997Z,98135.48
2018-01-22T13:34:39.366Z,98127.98
2018-01-22T13:37:10.415Z,98139.16
2018-01-22T13:39:38.730Z,98135.23
2018-01-22T13:42:07.030Z,98142.85
2018-01-22T13:44:35.351Z,98151.47
2018-01-22T13:47:04.135Z,98135.83
2018-01-22T13:49:32.534Z,98149.95
2018-01-22T13:52:00.875Z,98152.80
2018-01-22T13:54:29.209Z,98137.05
2018-01-22T13:56:57.526Z,98154.22
2018-01-22T13:59:25.840Z,98159.72
2018-01-22T14:01:54.212Z,98156.59
2018-01-22T14:04:23.734Z,98168.95
2018-01-22T14:06:52.072Z,98176.80
2018-01-22T14:09:20.370Z,98172.41
2018-01-22T14:11:48.968Z,98162.44
2018-01-22T14:14:17.271Z,98177.23
2018-01-22T14:16:45.608Z,98184.72
2018-01-22T14:19:14.105Z,98181.81
2018-01-22T14:21:42.420Z,98182.20
2018-01-22T14:24:10.698Z,98187.48
2018-01-22T14:26:39.063Z,98188.70
2018-01-22T14:29:07.321Z,98194.73
2018-01-22T14:31:35.776Z,98191.97
2018-01-22T14:34:04.175Z,98187.80
2018-01-22T14:36:33.901Z,98200.97
2018-01-22T14:39:02.222Z,98208.69
2018-01-22T14:41:31.402Z,98204.34
2018-01-22T14:43:59.891Z,98220.21
2018-01-22T14:46:28.184Z,98229.75
2018-01-22T14:48:56.526Z,98224.63
2018-01-22T14:51:24.842Z,98236.02
2018-01-22T14:53:53.148Z,98238.62
2018-01-22T14:56:21.542Z,98236.71
2018-01-22T14:58:49.846Z,98246.48
2018-01-22T15:01:18.211Z,98247.55
2018-01-22T15:03:46.519Z,98249.75
2018-01-22T15:06:15.000Z,98244.33
2018-01-22T15:08:43.346Z,98246.23
2018-01-22T15:11:11.648Z,98243.18
2018-01-22T15:13:39.949Z,98243.07
2018-01-22T15:16:08.268Z,98248.37
2018-01-22T15:18:36.592Z,98248.50
2018-01-22T15:21:05.894Z,98253.91
2018-01-22T15:23:34.200Z,98259.53
2018-01-22T15:26:02.510Z,98275.94
2018-01-22T15:28:30.808Z,98296.26
2018-01-22T15:30:59.598Z,98300.47
2018-01-22T15:33:27.878Z,98308.73
2018-01-22T15:35:56.184Z,98305.02
2018-01-22T15:38:24.499Z,98313.15
2018-01-22T15:40:53.113Z,98307.10
2018-01-22T15:43:21.385Z,98307.97
2018-01-22T15:45:49.666Z,98336.22
2018-01-22T15:48:18.008Z,98344.53
2018-01-22T15:50:46.327Z,98356.17
2018-01-22T15:53:14.628Z,98362.77
2018-01-22T15:55:42.916Z,98368.19
2018-01-22T15:58:11.244Z,98376.73
2018-01-22T16:00:39.558Z,98389.22
2018-01-22T16:03:07.861Z,98391.20
2018-01-22T16:05:37.176Z,98375.52
2018-01-22T16:08:05.557Z,98405.54
2018-01-22T16:10:33.815Z,98408.31
2018-01-22T16:13:02.118Z,98421.39
2018-01-22T16:15:30.395Z,98420.19
2018-01-22T16:17:59.418Z,98418.22
2018-01-22T16:20:27.692Z,98427.57
2018-01-22T16:22:56.029Z,98424.73
2018-01-22T16:25:24.333Z,98451.45
2018-01-22T16:27:52.637Z,98455.94
2018-01-22T16:30:20.977Z,98456.62
2018-01-22T16:32:49.272Z,98466.41
2018-01-22T16:35:17.570Z,98475.92
2018-01-22T16:37:46.004Z,98485.27
2018-01-22T16:40:14.275Z,98482.91
2018-01-22T16:42:42.562Z,98502.02
2018-01-22T16:45:10.854Z,98493.98
2018-01-22T16:47:44.593Z,98509.25
2018-01-22T16:50:12.879Z,98519.16
2018-01-22T16:52:41.223Z,98504.68
2018-01-22T16:55:09.534Z,98540.25
2018-01-22T16:57:37.791Z,98546.99
2018-01-22T17:00:06.131Z,98556.08
2018-01-22T17:02:34.560Z,98559.53
2018-01-22T17:05:02.851Z,98570.33
2018-01-22T17:07:31.110Z,98578.89
2018-01-22T17:09:59.443Z,98578.38
2018-01-22T17:12:28.094Z,98586.93
2018-01-22T17:14:56.360Z,98601.17
2018-01-22T17:19:59.059Z,98601.71
2018-01-22T17:22:27.337Z,98593.40
2018-01-22T17:24:56.383Z,98610.14
2018-01-22T17:27:24.672Z,98622.16
2018-01-22T17:29:52.944Z,98632.82
2018-01-22T17:32:21.250Z,98646.81
2018-01-22T17:34:49.523Z,98657.61
2018-01-22T17:37:17.830Z,98657.58
2018-01-22T17:39:46.130Z,98669.34
2018-01-22T17:42:14.425Z,98667.50
2018-01-22T17:44:42.719Z,98680.41
2018-01-22T17:47:11.047Z,98683.57
2018-01-22T17:49:39.419Z,98690.97
2018-01-22T17:52:07.823Z,98701.54
2018-01-22T17:54:36.125Z,98708.89
2018-01-22T17:57:04.923Z,98713.77
2018-01-22T17:59:33.219Z,98723.13
2018-01-22T18:02:01.502Z,98727.85
2018-01-22T18:04:29.829Z,98722.73
2018-01-22T18:06:58.099Z,98724.06
2018-01-22T18:09:26.423Z,98728.67
2018-01-22T18:11:54.683Z,98737.27
2018-01-22T18:14:23.015Z,98746.24
2018-01-22T18:16:51.295Z,98763.66
2018-01-22T18:19:19.604Z,98772.73
2018-01-22T18:21:47.882Z,98774.19
2018-01-22T18:24:16.210Z,98777.48
2018-01-22T18:26:44.484Z,98778.44
2018-01-22T18:29:12.783Z,98786.98
2018-01-22T18:31:41.058Z,98791.58
2018-01-22T18:34:09.365Z,98792.12
2018-01-22T18:36:37.635Z,98795.38
2018-01-22T18:39:05.896Z,98804.52
2018-01-22T18:41:34.187Z,98816.53
2018-01-22T18:44:02.466Z,98801.29
2018-01-22T18:46:30.839Z,98820.28
2018-01-22T18:48:59.258Z,98826.50
2018-01-22T18:51:27.553Z,98810.02
2018-01-22T18:53:55.857Z,98820.98
2018-01-22T18:56:24.247Z,98822.70
2018-01-22T18:58:52.483Z,98820.89
2018-01-22T19:01:20.828Z,98835.55
2018-01-22T19:03:49.131Z,98846.34
2018-01-22T19:06:17.441Z,98845.64
2018-01-22T19:08:45.763Z,98853.42
2018-01-22T19:11:14.103Z,98856.97
2018-01-22T19:13:42.407Z,98862.79
2018-01-22T19:16:10.675Z,98871.41
2018-01-22T19:18:39.043Z,98870.70
2018-01-22T19:21:07.352Z,98868.03
2018-01-22T19:23:35.683Z,98886.27
2018-01-22T19:26:03.976Z,98888.98
2018-01-22T19:28:32.288Z,98888.75
2018-01-22T19:31:00.554Z,98916.03
2018-01-22T19:33:28.911Z,98924.36
2018-01-22T19:35:57.231Z,98919.08
2018-01-22T19:38:26.562Z,98939.70
2018-01-22T19:40:54.795Z,98939.92
2018-01-22T19:43:23.094Z,98941.09
2018-01-22T19:45:51.384Z,98938.61
2018-01-22T19:48:19.709Z,98949.58
2018-01-22T19:50:48.003Z,98951.42
2018-01-22T19:53:16.290Z,98947.88
2018-01-22T19:55:44.568Z,98943.75
2018-01-22T19:58:12.864Z,98953.67
2018-01-22T20:00:41.136Z,98958.50
2018-01-22T20:03:09.418Z,98966.67
2018-01-22T20:05:38.008Z,98975.86
2018-01-22T20:08:06.548Z,98975.05
2018-01-22T20:10:34.847Z,98991.89
2018-01-22T20:13:03.132Z,98995.22
2018-01-22T20:15:31.450Z,98998.19
2018-01-22T20:17:59.712Z,99020.89
2018-01-22T20:20:28.005Z,99029.75
2018-01-22T20:22:56.273Z,99026.39
2018-01-22T20:25:24.559Z,99034.90
2018-01-22T20:27:54.613Z,99043.95
2018-01-22T20:30:22.916Z,99052.27
2018-01-22T20:32:51.247Z,99053.55
2018-01-22T20:35:19.555Z,99064.87
2018-01-22T20:37:48.724Z,99049.13
2018-01-22T20:40:17.026Z,99049.62
2018-01-22T20:42:45.329Z,99052.48
2018-01-22T20:45:13.723Z,99057.53
2018-01-22T20:47:42.065Z,99065.41
2018-01-22T20:50:10.296Z,99070.77
2018-01-22T20:52:38.648Z,99074.72
2018-01-22T20:55:06.918Z,99079.40
2018-01-22T20:57:36.209Z,99078.68
2018-01-22T21:00:05.443Z,99045.70
2018-01-22T21:02:33.738Z,99079.97
2018-01-22T21:05:02.023Z,99102.14
2018-01-22T21:07:30.431Z,99108.44
2018-01-22T21:09:58.758Z,99119.01
2018-01-22T21:12:27.044Z,99119.60
2018-01-22T21:14:55.358Z,99126.63
2018-01-22T21:17:23.629Z,99119.92
2018-01-22T21:19:51.939Z,99129.84
2018-01-22T21:22:20.199Z,99128.75
2018-01-22T21:24:48.491Z,99129.73
2018-01-22T21:27:16.789Z,99123.77
2018-01-22T21:29:45.111Z,99141.33
2018-01-22T21:32:13.421Z,99149.05
2018-01-22T21:34:41.914Z,99162.06
2018-01-22T21:37:10.151Z,99159.14
2018-01-22T21:39:38.487Z,99155.63
2018-01-22T21:42:06.845Z,99159.70
2018-01-22T21:44:35.142Z,99168.58
2018-01-22T21:47:03.460Z,99170.70
2018-01-22T21:49:31.762Z,99165.86
2018-01-22T21:52:00.055Z,99163.37
2018-01-22T21:54:28.305Z,99165.53
2018-01-22T21:56:56.625Z,99170.84
2018-01-22T21:59:24.933Z,99166.11
2018-01-22T22:01:53.208Z,99163.11
2018-01-22T22:04:21.454Z,99172.23
2018-01-22T22:06:49.751Z,99188.84
2018-01-22T22:09:18.070Z,99203.33
2018-01-22T22:11:46.351Z,99208.01
2018-01-22T22:14:14.708Z,99211.16
2018-01-22T22:16:43.145Z,99211.81
2018-01-22T22:19:11.470Z,99209.80
2018-01-22T22:21:39.723Z,99220.92
2018-01-22T22:24:08.004Z,99223.92
2018-01-22T22:26:36.292Z,99222.97
2018-01-22T22:29:05.372Z,99217.36
2018-01-22T22:31:33.635Z,99212.88
2018-01-22T22:34:01.947Z,99214.50
2018-01-22T22:36:30.205Z,99227.57
2018-01-22T22:38:58.786Z,99223.49
2018-01-22T22:41:28.195Z,99230.53
2018-01-22T22:43:56.516Z,99242.83
2018-01-22T22:46:24.837Z,99234.40
2018-01-22T22:48:53.176Z,99250.28
2018-01-22T22:51:21.500Z,99250.95
2018-01-22T22:53:49.754Z,99268.84
2018-01-22T22:56:18.495Z,99277.80
2018-01-22T22:58:46.736Z,99275.99
2018-01-22T23:01:15.022Z,99280.86
2018-01-22T23:03:43.308Z,99277.55
2018-01-22T23:06:11.596Z,99271.73
2018-01-22T23:08:39.840Z,99277.87
2018-01-22T23:11:08.126Z,99268.41
2018-01-22T23:13:36.413Z,99278.08
2018-01-22T23:16:05.481Z,99263.16
2018-01-22T23:18:33.761Z,99291.55
2018-01-22T23:21:02.044Z,99303.10
2018-01-22T23:23:30.339Z,99311.05
2018-01-22T23:25:58.597Z,99312.66
2018-01-22T23:28:26.894Z,99304.11
2018-01-22T23:30:55.145Z,99306.70
2018-01-22T23:33:23.419Z,99313.77
2018-01-22T23:35:51.695Z,99324.95
2018-01-22T23:38:19.984Z,99317.86
2018-01-22T23:40:48.252Z,99318.42
2018-01-22T23:43:16.554Z,99315.84
2018-01-22T23:45:44.817Z,99325.36
2018-01-22T23:48:13.131Z,99329.09
2018-01-22T23:50:41.390Z,99326.80
2018-01-22T23:53:09.677Z,99326.94
2018-01-22T23:55:37.935Z,99330.59
2018-01-22T23:58:06.241Z,99345.91
